Time;durP1;ratioP1;P1;durP2;ratioP2;P2;SDS_P1;SDS_P2;PMS_P1;PMS_P2;Temp;Humidity;BMP_temperature;BMP_pressure;BME280_temperature;BME280_humidity;BME280_pressure;Samples;Min_cycle;Max_cycle;Signal;HPM_P1;HPM_P2
2021/03/25 00:01:57;;;;;;;62.85;33.60;;;;;;;;;;5114186;28;20204;-66
2021/03/25 00:04:24;;;;;;;61.33;34.10;;;;;;;;;;5113912;28;20190;-66
2021/03/25 00:06:52;;;;;;;65.90;34.40;;;;;;;;;;5113911;28;20280;-66
2021/03/25 00:09:20;;;;;;;62.17;33.97;;;;;;;;;;5113568;28;20667;-66
2021/03/25 00:11:47;;;;;;;61.75;35.15;;;;;;;;;;5113771;28;20664;-68
2021/03/25 00:14:14;;;;;;;58.25;35.65;;;;;;;;;;5113817;28;20226;-67
2021/03/25 00:16:41;;;;;;;54.33;33.30;;;;;;;;;;5114053;28;20234;-66
2021/03/25 00:19:08;;;;;;;57.40;35.22;;;;;;;;;;5113756;28;20336;-67
2021/03/25 00:21:35;;;;;;;59.40;34.22;;;;;;;;;;5114429;28;20230;-66
2021/03/25 00:24:02;;;;;;;67.07;33.70;;;;;;;;;;5113789;28;20272;-67
2021/03/25 00:26:29;;;;;;;56.08;35.55;;;;;;;;;;5113347;28;20191;-66
2021/03/25 00:28:56;;;;;;;60.92;33.47;;;;;;;;;;5113388;28;20742;-66
2021/03/25 00:31:23;;;;;;;59.85;35.70;;;;;;;;;;5116827;28;20309;-66
2021/03/25 00:33:51;;;;;;;66.05;34.40;;;;;;;;;;5117717;28;20611;-66
2021/03/25 00:36:18;;;;;;;54.03;35.00;;;;;;;;;;5117320;28;20284;-66
2021/03/25 00:38:44;;;;;;;66.55;37.03;;;;;;;;;;5117662;28;20294;-66
2021/03/25 00:41:11;;;;;;;57.63;35.75;;;;;;;;;;5118411;28;20285;-66
2021/03/25 00:43:39;;;;;;;63.30;33.92;;;;;;;;;;5117954;28;20770;-66
2021/03/25 00:46:05;;;;;;;60.75;36.00;;;;;;;;;;5117480;27;20239;-67
2021/03/25 00:48:32;;;;;;;68.68;35.55;;;;;;;;;;5117610;28;20373;-66
2021/03/25 00:51:01;;;;;;;63.25;35.05;;;;;;;;;;5116948;28;20305;-66
2021/03/25 00:53:28;;;;;;;65.97;37.85;;;;;;;;;;5117039;28;20302;-66
2021/03/25 00:55:55;;;;;;;61.00;36.15;;;;;;;;;;5117400;28;20197;-67
2021/03/25 00:58:22;;;;;;;67.28;35.90;;;;;;;;;;5116785;28;20200;-66
2021/03/25 01:00:50;;;;;;;60.00;35.33;;;;;;;;;;5117480;28;20233;-66
2021/03/25 01:03:18;;;;;;;57.70;34.88;;;;;;;;;;5117296;28;20280;-66
2021/03/25 01:05:45;;;;;;;69.60;37.13;;;;;;;;;;5116783;28;20202;-66
2021/03/25 01:08:12;;;;;;;67.00;36.45;;;;;;;;;;5117863;28;20306;-66
2021/03/25 01:10:40;;;;;;;69.63;37.88;;;;;;;;;;5116591;27;20286;-66
2021/03/25 01:13:09;;;;;;;65.05;37.80;;;;;;;;;;5117408;28;20280;-66
2021/03/25 01:15:35;;;;;;;67.30;38.90;;;;;;;;;;5116930;28;20197;-66
2021/03/25 01:18:05;;;;;;;67.45;38.50;;;;;;;;;;5117177;28;20280;-67
2021/03/25 01:20:33;;;;;;;65.95;36.80;;;;;;;;;;5117338;28;20232;-66
2021/03/25 01:23:01;;;;;;;71.35;38.35;;;;;;;;;;5117609;28;20297;-66
2021/03/25 01:25:28;;;;;;;64.65;37.70;;;;;;;;;;5116771;28;20200;-66
2021/03/25 01:27:54;;;;;;;62.08;37.92;;;;;;;;;;5116387;28;20616;-66
2021/03/25 01:30:22;;;;;;;68.18;38.85;;;;;;;;;;5116317;28;20329;-66
2021/03/25 01:32:48;;;;;;;67.78;38.25;;;;;;;;;;5116246;28;20279;-66
2021/03/25 01:35:16;;;;;;;62.10;37.08;;;;;;;;;;5116536;28;20287;-66
2021/03/25 01:37:44;;;;;;;72.38;40.88;;;;;;;;;;5116810;28;20284;-66
2021/03/25 01:40:13;;;;;;;68.55;39.53;;;;;;;;;;5116149;28;20669;-66
2021/03/25 01:42:40;;;;;;;72.07;40.30;;;;;;;;;;5116324;28;20296;-66
2021/03/25 01:45:36;;;;;;;72.07;43.15;;;;;;;;;;5116524;28;20280;-66
2021/03/25 01:48:03;;;;;;;67.55;37.83;;;;;;;;;;5073313;28;20183;-66
2021/03/25 01:50:31;;;;;;;70.28;37.15;;;;;;;;;;5106119;28;20722;-66
2021/03/25 01:53:03;;;;;;;76.45;40.53;;;;;;;;;;5116564;28;20252;-66
2021/03/25 01:55:35;;;;;;;68.65;38.53;;;;;;;;;;5115877;27;20186;-66
2021/03/25 01:58:14;;;;;;;63.08;36.28;;;;;;;;;;5116540;28;20647;-66
2021/03/25 02:00:43;;;;;;;70.53;40.00;;;;;;;;;;5116407;28;20257;-66
2021/03/25 02:03:36;;;;;;;68.55;36.90;;;;;;;;;;5116294;28;20232;-66
2021/03/25 02:06:07;;;;;;;71.45;38.65;;;;;;;;;;5115933;27;20231;-67
2021/03/25 02:08:44;;;;;;;66.65;38.08;;;;;;;;;;5115628;28;20404;-66
2021/03/25 02:11:14;;;;;;;70.50;40.67;;;;;;;;;;5115495;28;20292;-66
2021/03/25 02:13:44;;;;;;;72.05;39.13;;;;;;;;;;5115497;28;20243;-67
2021/03/25 02:16:14;;;;;;;68.70;38.63;;;;;;;;;;5115836;28;20635;-67
2021/03/25 02:18:44;;;;;;;71.25;38.72;;;;;;;;;;5115560;28;20193;-66
2021/03/25 02:21:34;;;;;;;71.53;38.70;;;;;;;;;;5115372;28;20284;-67
2021/03/25 02:24:10;;;;;;;75.03;39.63;;;;;;;;;;5115355;28;20319;-66
2021/03/25 02:26:38;;;;;;;62.03;37.58;;;;;;;;;;5115789;28;20277;-66
2021/03/25 02:29:18;;;;;;;62.72;38.30;;;;;;;;;;5115838;28;20309;-66
2021/03/25 02:31:48;;;;;;;70.55;39.30;;;;;;;;;;5115557;28;20244;-66
2021/03/25 02:34:17;;;;;;;72.15;41.58;;;;;;;;;;5115124;28;20225;-67
2021/03/25 02:36:45;;;;;;;69.68;38.35;;;;;;;;;;5115513;27;20618;-67
2021/03/25 02:39:13;;;;;;;66.50;39.15;;;;;;;;;;5114975;28;20334;-67
2021/03/25 02:41:42;;;;;;;67.10;39.20;;;;;;;;;;5116077;28;20297;-66
2021/03/25 02:44:10;;;;;;;77.00;40.28;;;;;;;;;;5115153;28;20193;-66
2021/03/25 02:46:39;;;;;;;68.43;40.10;;;;;;;;;;5116030;28;20200;-67
2021/03/25 02:49:08;;;;;;;77.50;40.63;;;;;;;;;;5115333;27;20204;-66
2021/03/25 02:51:37;;;;;;;73.45;40.15;;;;;;;;;;5114859;28;20335;-66
2021/03/25 02:54:05;;;;;;;81.13;40.42;;;;;;;;;;5113956;28;20292;-66
2021/03/25 02:56:35;;;;;;;68.63;39.00;;;;;;;;;;5114943;28;20232;-67
2021/03/25 02:59:03;;;;;;;78.93;40.58;;;;;;;;;;5114934;28;20335;-65
2021/03/25 03:01:33;;;;;;;74.97;41.00;;;;;;;;;;5115199;28;20283;-66
2021/03/25 03:04:02;;;;;;;75.38;39.25;;;;;;;;;;5114994;28;20266;-67
2021/03/25 03:06:32;;;;;;;64.07;38.13;;;;;;;;;;5114771;28;20276;-66
2021/03/25 03:08:59;;;;;;;69.20;39.55;;;;;;;;;;5114693;28;20196;-66
2021/03/25 03:11:28;;;;;;;60.78;37.42;;;;;;;;;;5114605;27;20278;-66
2021/03/25 03:13:56;;;;;;;68.97;37.60;;;;;;;;;;5114297;28;20228;-66
2021/03/25 03:16:26;;;;;;;68.40;39.05;;;;;;;;;;5114819;28;20673;-66
2021/03/25 03:18:56;;;;;;;69.93;36.13;;;;;;;;;;5115455;28;20591;-66
2021/03/25 03:21:25;;;;;;;66.95;37.00;;;;;;;;;;5114462;28;20280;-66
2021/03/25 03:23:53;;;;;;;66.75;39.40;;;;;;;;;;5115535;27;20285;-67
2021/03/25 03:26:22;;;;;;;64.05;38.05;;;;;;;;;;5114342;28;20290;-66
2021/03/25 03:28:51;;;;;;;66.68;37.45;;;;;;;;;;5114860;28;20233;-65
2021/03/25 03:31:19;;;;;;;68.65;39.08;;;;;;;;;;5113906;28;20262;-66
2021/03/25 03:33:48;;;;;;;69.15;38.88;;;;;;;;;;5113895;28;20280;-66
2021/03/25 03:36:16;;;;;;;74.35;38.25;;;;;;;;;;5114218;27;20280;-67
2021/03/25 03:38:48;;;;;;;71.95;40.15;;;;;;;;;;5114243;28;20348;-66
2021/03/25 03:41:17;;;;;;;76.05;39.95;;;;;;;;;;5115064;28;20558;-67
2021/03/25 03:43:44;;;;;;;72.25;42.05;;;;;;;;;;5114363;28;20284;-67
2021/03/25 03:46:13;;;;;;;69.20;39.17;;;;;;;;;;5114930;28;20280;-67
2021/03/25 03:48:42;;;;;;;72.47;41.67;;;;;;;;;;5114086;28;20285;-66
2021/03/25 03:51:11;;;;;;;78.65;37.20;;;;;;;;;;5114104;28;20320;-65
2021/03/25 03:53:39;;;;;;;73.75;40.20;;;;;;;;;;5114006;28;20281;-66
2021/03/25 03:56:12;;;;;;;75.18;38.83;;;;;;;;;;5113690;28;20663;-66
2021/03/25 03:58:43;;;;;;;71.55;41.17;;;;;;;;;;5114399;28;20205;-65
2021/03/25 04:01:14;;;;;;;73.60;37.70;;;;;;;;;;5114418;28;20273;-66
2021/03/25 04:03:42;;;;;;;68.65;38.30;;;;;;;;;;5115256;28;20611;-66
2021/03/25 04:06:11;;;;;;;81.45;42.63;;;;;;;;;;5120748;27;20338;-65
2021/03/25 04:08:40;;;;;;;68.50;36.53;;;;;;;;;;5120596;27;20284;-65
2021/03/25 04:11:08;;;;;;;71.75;38.35;;;;;;;;;;5120516;27;20221;-65
2021/03/25 04:13:39;;;;;;;62.13;38.22;;;;;;;;;;5120366;27;20198;-67
2021/03/25 04:16:06;;;;;;;72.45;38.85;;;;;;;;;;5121086;27;20277;-67
2021/03/25 04:18:38;;;;;;;78.03;40.00;;;;;;;;;;5120599;27;20231;-66
2021/03/25 04:21:07;;;;;;;83.25;40.80;;;;;;;;;;5120331;27;20276;-66
2021/03/25 04:23:35;;;;;;;73.07;36.50;;;;;;;;;;5120381;27;20280;-66
2021/03/25 04:26:05;;;;;;;67.43;38.05;;;;;;;;;;5120585;27;20288;-66
2021/03/25 04:28:34;;;;;;;63.00;36.65;;;;;;;;;;5120953;27;20612;-67
2021/03/25 04:31:02;;;;;;;60.30;37.35;;;;;;;;;;5120525;27;20257;-66
2021/03/25 04:33:30;;;;;;;71.90;39.08;;;;;;;;;;5121411;27;20203;-67
2021/03/25 04:35:58;;;;;;;66.07;37.83;;;;;;;;;;5120167;27;20288;-66
2021/03/25 04:38:26;;;;;;;68.78;37.60;;;;;;;;;;5120076;27;20289;-66
2021/03/25 04:40:55;;;;;;;63.65;37.90;;;;;;;;;;5120728;27;20342;-67
2021/03/25 04:43:23;;;;;;;70.55;37.70;;;;;;;;;;5120073;27;20281;-66
2021/03/25 04:45:52;;;;;;;66.80;38.35;;;;;;;;;;5120376;27;20281;-67
2021/03/25 04:48:20;;;;;;;72.78;39.00;;;;;;;;;;5120932;27;20314;-68
2021/03/25 04:50:51;;;;;;;65.95;36.20;;;;;;;;;;5120357;27;20237;-68
2021/03/25 04:53:23;;;;;;;63.25;37.63;;;;;;;;;;5120773;27;20270;-67
2021/03/25 04:55:50;;;;;;;75.43;39.65;;;;;;;;;;5120235;27;20232;-66
2021/03/25 04:58:21;;;;;;;77.78;39.17;;;;;;;;;;5120038;27;20240;-66
2021/03/25 05:00:48;;;;;;;78.75;41.35;;;;;;;;;;5120951;27;20314;-67
2021/03/25 05:03:17;;;;;;;69.07;39.45;;;;;;;;;;5120632;27;20283;-66
2021/03/25 05:05:43;;;;;;;65.70;39.53;;;;;;;;;;5119883;27;20197;-66
2021/03/25 05:08:16;;;;;;;76.82;39.25;;;;;;;;;;5119841;27;20194;-66
2021/03/25 05:10:44;;;;;;;71.93;42.65;;;;;;;;;;5118404;27;20239;-66
2021/03/25 05:13:20;;;;;;;69.57;37.55;;;;;;;;;;5120116;27;20250;-66
2021/03/25 05:15:46;;;;;;;81.22;41.67;;;;;;;;;;5118346;27;20599;-65
2021/03/25 05:18:17;;;;;;;76.88;40.78;;;;;;;;;;5116653;28;20283;-65
2021/03/25 05:20:47;;;;;;;82.85;43.10;;;;;;;;;;5116722;28;20598;-66
2021/03/25 05:23:19;;;;;;;81.20;40.58;;;;;;;;;;5116602;28;20237;-65
2021/03/25 05:25:47;;;;;;;70.40;39.50;;;;;;;;;;5116390;28;20710;-67
2021/03/25 05:28:18;;;;;;;78.40;41.38;;;;;;;;;;5116619;28;20641;-65
2021/03/25 05:30:46;;;;;;;74.18;42.28;;;;;;;;;;5116124;28;20272;-66
2021/03/25 05:33:14;;;;;;;75.95;41.33;;;;;;;;;;5115659;28;20284;-65
2021/03/25 05:35:43;;;;;;;76.75;43.13;;;;;;;;;;5116494;28;20291;-66
2021/03/25 05:38:10;;;;;;;79.45;42.95;;;;;;;;;;5115931;28;20587;-66
2021/03/25 05:40:40;;;;;;;77.28;42.85;;;;;;;;;;5115596;28;20610;-66
2021/03/25 05:43:19;;;;;;;86.90;42.53;;;;;;;;;;5115860;28;20233;-67
2021/03/25 05:45:50;;;;;;;81.28;43.47;;;;;;;;;;5115484;28;20268;-65
2021/03/25 05:48:28;;;;;;;79.38;43.88;;;;;;;;;;5114939;28;20204;-65
2021/03/25 05:50:58;;;;;;;70.93;41.72;;;;;;;;;;5115138;28;20272;-65
2021/03/25 05:53:31;;;;;;;77.30;42.15;;;;;;;;;;5115341;28;20207;-66
2021/03/25 05:56:07;;;;;;;75.63;42.58;;;;;;;;;;5114885;28;20278;-67
2021/03/25 05:58:39;;;;;;;75.00;40.17;;;;;;;;;;5114588;28;20741;-66
2021/03/25 06:01:20;;;;;;;72.18;41.92;;;;;;;;;;5114800;28;20213;-66
2021/03/25 06:03:54;;;;;;;78.40;43.40;;;;;;;;;;5115646;28;20215;-67
2021/03/25 06:06:25;;;;;;;71.80;41.60;;;;;;;;;;5115763;28;20345;-66
2021/03/25 06:08:55;;;;;;;74.70;43.17;;;;;;;;;;5114672;28;20270;-65
2021/03/25 06:11:29;;;;;;;70.25;41.13;;;;;;;;;;5113796;28;20641;-65
2021/03/25 06:14:03;;;;;;;79.70;43.50;;;;;;;;;;5115527;28;20185;-65
2021/03/25 06:16:36;;;;;;;69.13;40.40;;;;;;;;;;5115829;28;20221;-66
2021/03/25 06:19:19;;;;;;;77.47;45.17;;;;;;;;;;5115676;28;20217;-67
2021/03/25 06:22:02;;;;;;;66.25;38.30;;;;;;;;;;5115319;28;20279;-66
2021/03/25 06:24:47;;;;;;;76.85;42.42;;;;;;;;;;5115951;28;20325;-67
2021/03/25 06:27:19;;;;;;;77.53;44.47;;;;;;;;;;5114695;28;20614;-66
2021/03/25 06:29:48;;;;;;;76.82;43.08;;;;;;;;;;5115164;28;20217;-67
2021/03/25 06:32:17;;;;;;;80.93;42.42;;;;;;;;;;5115653;28;20309;-67
2021/03/25 06:34:46;;;;;;;77.53;41.42;;;;;;;;;;5115360;28;20600;-71
2021/03/25 06:37:15;;;;;;;74.03;43.22;;;;;;;;;;5115325;28;20192;-65
2021/03/25 06:39:45;;;;;;;64.57;39.05;;;;;;;;;;5115585;28;20617;-65
2021/03/25 06:42:21;;;;;;;86.03;44.53;;;;;;;;;;5115101;28;20728;-65
2021/03/25 06:44:51;;;;;;;78.90;41.05;;;;;;;;;;5115163;28;20276;-65
2021/03/25 06:47:26;;;;;;;74.80;42.35;;;;;;;;;;5115271;27;20284;-66
2021/03/25 06:49:57;;;;;;;75.80;43.65;;;;;;;;;;5115594;28;20188;-66
2021/03/25 06:52:33;;;;;;;81.32;44.70;;;;;;;;;;5115212;28;20242;-66
2021/03/25 06:55:05;;;;;;;75.13;42.40;;;;;;;;;;5115229;28;20305;-65
2021/03/25 06:57:39;;;;;;;83.57;42.33;;;;;;;;;;5114753;28;20195;-66
2021/03/25 07:00:12;;;;;;;77.57;41.33;;;;;;;;;;5115058;28;20690;-66
2021/03/25 07:02:39;;;;;;;99.43;48.25;;;;;;;;;;5115236;28;20201;-66
2021/03/25 07:05:09;;;;;;;89.40;44.00;;;;;;;;;;5114972;28;20290;-66
2021/03/25 07:07:37;;;;;;;98.32;45.30;;;;;;;;;;5114459;28;20710;-65
2021/03/25 07:10:04;;;;;;;96.32;42.53;;;;;;;;;;5114714;28;20202;-65
2021/03/25 07:12:32;;;;;;;103.18;47.70;;;;;;;;;;5114538;28;20704;-65
2021/03/25 07:15:01;;;;;;;101.32;45.50;;;;;;;;;;5114898;28;20711;-66
2021/03/25 07:17:34;;;;;;;103.32;46.78;;;;;;;;;;5114978;28;20289;-66
2021/03/25 07:20:02;;;;;;;81.32;42.38;;;;;;;;;;5114281;28;20279;-65
2021/03/25 07:22:31;;;;;;;90.05;45.58;;;;;;;;;;5114647;28;20203;-65
2021/03/25 07:25:13;;;;;;;87.25;44.20;;;;;;;;;;5114775;28;20196;-65
2021/03/25 07:27:40;;;;;;;85.70;44.70;;;;;;;;;;5114076;28;20287;-67
2021/03/25 07:30:10;;;;;;;81.40;44.42;;;;;;;;;;5114245;28;20290;-66
2021/03/25 07:32:40;;;;;;;87.13;44.47;;;;;;;;;;5114164;28;20661;-67
2021/03/25 07:35:15;;;;;;;76.05;44.33;;;;;;;;;;5114257;28;20277;-66
2021/03/25 07:37:43;;;;;;;87.25;46.13;;;;;;;;;;5114273;28;20307;-66
2021/03/25 07:40:22;;;;;;;74.10;44.50;;;;;;;;;;5113832;28;20219;-67
2021/03/25 07:42:48;;;;;;;92.53;44.35;;;;;;;;;;5114740;28;20219;-66
2021/03/25 07:45:27;;;;;;;98.72;44.33;;;;;;;;;;5114411;28;20278;-67
2021/03/25 07:47:55;;;;;;;93.05;47.78;;;;;;;;;;5114265;28;20329;-66
2021/03/25 07:50:27;;;;;;;102.88;48.35;;;;;;;;;;5113795;28;20277;-66
2021/03/25 07:52:54;;;;;;;90.07;47.75;;;;;;;;;;5113672;28;20230;-67
2021/03/25 07:55:25;;;;;;;84.65;47.25;;;;;;;;;;5114071;28;20283;-66
2021/03/25 07:57:53;;;;;;;86.85;48.38;;;;;;;;;;5113720;28;20243;-66
2021/03/25 08:00:25;;;;;;;97.90;49.60;;;;;;;;;;5114135;28;20323;-66
2021/03/25 08:03:10;;;;;;;89.03;48.90;;;;;;;;;;5114282;28;20275;-66
2021/03/25 08:05:37;;;;;;;87.22;51.42;;;;;;;;;;5113667;28;20233;-65
2021/03/25 08:08:04;;;;;;;94.95;53.60;;;;;;;;;;5113950;28;20331;-66
2021/03/25 08:10:35;;;;;;;110.82;51.03;;;;;;;;;;5113888;28;20228;-66
2021/03/25 08:13:06;;;;;;;100.03;50.85;;;;;;;;;;5114320;28;20288;-67
2021/03/25 08:15:36;;;;;;;99.72;50.03;;;;;;;;;;5113597;28;20328;-67
2021/03/25 08:18:19;;;;;;;104.10;50.17;;;;;;;;;;5113842;28;20302;-66
2021/03/25 08:20:53;;;;;;;97.90;48.38;;;;;;;;;;5101564;28;20231;-67
2021/03/25 08:23:24;;;;;;;92.60;52.85;;;;;;;;;;5114115;28;20212;-66
2021/03/25 08:25:55;;;;;;;93.40;49.53;;;;;;;;;;5113936;28;20187;-66
2021/03/25 08:28:40;;;;;;;82.28;47.33;;;;;;;;;;5113482;28;20238;-66
2021/03/25 08:31:24;;;;;;;107.10;50.20;;;;;;;;;;5113663;28;20192;-66
2021/03/25 08:33:58;;;;;;;85.07;47.63;;;;;;;;;;5103439;28;20331;-66
2021/03/25 08:36:32;;;;;;;77.97;47.15;;;;;;;;;;5113593;28;20520;-66
2021/03/25 08:39:26;;;;;;;81.47;49.77;;;;;;;;;;5113223;28;20179;-66
2021/03/25 08:41:57;;;;;;;85.60;48.23;;;;;;;;;;5098248;28;20449;-66
2021/03/25 08:44:29;;;;;;;82.25;47.55;;;;;;;;;;5113811;28;20525;-65
2021/03/25 08:46:57;;;;;;;88.05;48.20;;;;;;;;;;5113262;28;20188;-66
2021/03/25 08:49:27;;;;;;;78.68;44.83;;;;;;;;;;5113162;28;20242;-66
2021/03/25 08:51:57;;;;;;;88.07;48.15;;;;;;;;;;5116274;28;20343;-66
2021/03/25 08:54:26;;;;;;;94.15;49.15;;;;;;;;;;5117266;28;20208;-66
2021/03/25 08:56:55;;;;;;;88.60;46.75;;;;;;;;;;5117155;28;20286;-66
2021/03/25 08:59:23;;;;;;;80.53;45.77;;;;;;;;;;5116659;28;20264;-66
2021/03/25 09:01:51;;;;;;;82.55;46.97;;;;;;;;;;5117118;28;20961;-66
2021/03/25 09:04:19;;;;;;;83.40;49.70;;;;;;;;;;5117070;28;20633;-66
2021/03/25 09:06:47;;;;;;;76.87;45.37;;;;;;;;;;5116852;28;20290;-66
2021/03/25 09:09:27;;;;;;;82.37;46.70;;;;;;;;;;5116811;28;20446;-66
2021/03/25 09:11:53;;;;;;;81.90;49.40;;;;;;;;;;5116752;28;20469;-67
2021/03/25 09:14:22;;;;;;;94.57;47.78;;;;;;;;;;5116677;28;20484;-66
2021/03/25 09:16:49;;;;;;;88.35;50.65;;;;;;;;;;5117372;28;20230;-66
2021/03/25 09:19:18;;;;;;;88.63;48.42;;;;;;;;;;5117399;28;20625;-66
2021/03/25 09:21:47;;;;;;;80.23;45.90;;;;;;;;;;5116881;28;20231;-66
2021/03/25 09:24:14;;;;;;;95.07;47.88;;;;;;;;;;5116529;28;20533;-66
2021/03/25 09:26:53;;;;;;;85.93;47.58;;;;;;;;;;5116512;27;20202;-66
2021/03/25 09:29:21;;;;;;;81.70;46.10;;;;;;;;;;5117506;28;20198;-67
2021/03/25 09:32:07;;;;;;;80.57;48.60;;;;;;;;;;5116101;28;20513;-67
2021/03/25 09:34:45;;;;;;;86.07;45.30;;;;;;;;;;5116133;28;20499;-67
2021/03/25 09:37:18;;;;;;;75.40;44.70;;;;;;;;;;5116453;28;20438;-67
2021/03/25 09:39:45;;;;;;;67.13;40.87;;;;;;;;;;5117256;28;20423;-66
2021/03/25 09:42:26;;;;;;;69.10;38.90;;;;;;;;;;5116124;28;20483;-68
2021/03/25 09:44:53;;;;;;;63.83;37.47;;;;;;;;;;5116102;28;20968;-67
2021/03/25 09:47:25;;;;;;;62.17;35.63;;;;;;;;;;5116357;28;20469;-66
2021/03/25 09:49:55;;;;;;;68.63;34.93;;;;;;;;;;5116035;28;20916;-67
2021/03/25 09:52:24;;;;;;;68.70;36.30;;;;;;;;;;5116053;28;20975;-67
2021/03/25 09:55:10;;;;;;;61.90;37.90;;;;;;;;;;5116137;28;20448;-66
2021/03/25 09:57:40;;;;;;;60.53;36.23;;;;;;;;;;5116604;27;20533;-66
2021/03/25 10:00:09;;;;;;;56.30;32.80;;;;;;;;;;5116155;28;20475;-67
2021/03/25 10:02:52;;;;;;;62.17;35.57;;;;;;;;;;5115322;28;20434;-67
2021/03/25 10:05:27;;;;;;;51.40;33.17;;;;;;;;;;5116395;28;20431;-66
2021/03/25 10:07:55;;;;;;;53.10;33.67;;;;;;;;;;5116312;28;20514;-66
2021/03/25 10:10:31;;;;;;;48.57;31.20;;;;;;;;;;5116055;28;20466;-67
2021/03/25 10:13:23;;;;;;;56.60;34.40;;;;;;;;;;5115448;28;20515;-67
2021/03/25 10:15:55;;;;;;;53.53;30.10;;;;;;;;;;5115449;28;20423;-66
2021/03/25 10:18:41;;;;;;;49.60;31.33;;;;;;;;;;5115376;28;20427;-66
2021/03/25 10:21:09;;;;;;;49.13;29.83;;;;;;;;;;5115610;28;20470;-67
2021/03/25 10:23:38;;;;;;;47.43;26.30;;;;;;;;;;5115293;28;20932;-67
2021/03/25 10:26:16;;;;;;;49.00;28.77;;;;;;;;;;5115273;28;20979;-66
2021/03/25 10:28:45;;;;;;;50.23;31.20;;;;;;;;;;5115739;28;20449;-68
2021/03/25 10:31:15;;;;;;;42.03;28.00;;;;;;;;;;5115504;28;20435;-67
2021/03/25 10:33:42;;;;;;;49.77;30.60;;;;;;;;;;5115638;28;20608;-67
2021/03/25 10:36:11;;;;;;;51.17;31.30;;;;;;;;;;5115377;28;20525;-67
2021/03/25 10:38:41;;;;;;;57.90;33.03;;;;;;;;;;5115049;28;20436;-67
2021/03/25 10:41:16;;;;;;;51.40;32.47;;;;;;;;;;5115025;28;20462;-70
2021/03/25 10:43:43;;;;;;;56.83;34.97;;;;;;;;;;5115002;28;20434;-67
2021/03/25 10:46:10;;;;;;;49.67;33.70;;;;;;;;;;5114941;28;20496;-66
2021/03/25 10:48:39;;;;;;;61.40;34.70;;;;;;;;;;5115134;28;20473;-66
2021/03/25 10:51:07;;;;;;;51.90;33.53;;;;;;;;;;5114957;28;20486;-66
2021/03/25 10:53:36;;;;;;;51.97;32.13;;;;;;;;;;5115101;28;20510;-66
2021/03/25 10:56:08;;;;;;;54.40;30.90;;;;;;;;;;5115581;28;20920;-67
2021/03/25 10:58:36;;;;;;;56.53;33.10;;;;;;;;;;5114353;28;20987;-66
2021/03/25 11:01:05;;;;;;;55.73;33.00;;;;;;;;;;5114838;28;20525;-66
2021/03/25 11:03:33;;;;;;;49.23;34.33;;;;;;;;;;5114965;28;20464;-66
2021/03/25 11:06:02;;;;;;;57.50;34.83;;;;;;;;;;5114401;28;20928;-66
2021/03/25 11:08:34;;;;;;;51.50;32.67;;;;;;;;;;5114712;28;20443;-68
2021/03/25 11:11:02;;;;;;;57.00;33.10;;;;;;;;;;5114945;28;20458;-67
2021/03/25 11:13:30;;;;;;;59.17;32.60;;;;;;;;;;5113807;28;20573;-66
2021/03/25 11:15:58;;;;;;;52.70;32.00;;;;;;;;;;5114595;28;20470;-67
2021/03/25 11:18:28;;;;;;;50.93;31.07;;;;;;;;;;5114369;28;20474;-66
2021/03/25 11:20:55;;;;;;;54.53;34.93;;;;;;;;;;5114408;28;20510;-67
2021/03/25 11:23:24;;;;;;;56.17;34.10;;;;;;;;;;5115095;28;20939;-67
2021/03/25 11:25:56;;;;;;;59.23;34.43;;;;;;;;;;5114076;28;20450;-67
2021/03/25 11:28:23;;;;;;;52.43;32.70;;;;;;;;;;5114873;28;20501;-66
2021/03/25 11:30:51;;;;;;;56.20;35.60;;;;;;;;;;5113877;28;20488;-66
2021/03/25 11:33:21;;;;;;;51.30;33.37;;;;;;;;;;5114417;28;20569;-67
2021/03/25 11:35:49;;;;;;;51.37;31.97;;;;;;;;;;5114193;28;20530;-67
2021/03/25 11:38:17;;;;;;;52.10;34.00;;;;;;;;;;5114042;28;20530;-67
2021/03/25 11:40:45;;;;;;;63.00;34.63;;;;;;;;;;5113951;28;21162;-66
2021/03/25 11:43:14;;;;;;;58.80;35.70;;;;;;;;;;5114077;28;20446;-66
2021/03/25 11:45:43;;;;;;;64.07;34.00;;;;;;;;;;5114248;28;20525;-67
2021/03/25 11:48:17;;;;;;;57.63;35.10;;;;;;;;;;5113730;28;20448;-66
2021/03/25 11:50:46;;;;;;;50.23;31.47;;;;;;;;;;5114031;28;20442;-66
2021/03/25 11:53:27;;;;;;;49.03;29.40;;;;;;;;;;5113835;28;20569;-67
2021/03/25 11:55:55;;;;;;;55.57;32.67;;;;;;;;;;5114259;28;20450;-66
2021/03/25 11:58:24;;;;;;;50.70;32.60;;;;;;;;;;5114019;28;20486;-67
2021/03/25 12:00:56;;;;;;;46.93;31.13;;;;;;;;;;5114173;28;20554;-67
2021/03/25 12:03:25;;;;;;;53.03;32.27;;;;;;;;;;5113856;28;20522;-66
2021/03/25 12:05:52;;;;;;;52.20;31.90;;;;;;;;;;5113491;28;20583;-67
2021/03/25 12:08:30;;;;;;;50.00;33.73;;;;;;;;;;5113616;28;20450;-67
2021/03/25 12:10:59;;;;;;;59.50;33.07;;;;;;;;;;5113593;28;20430;-66
2021/03/25 12:13:26;;;;;;;53.20;33.33;;;;;;;;;;5113340;28;20510;-66
2021/03/25 12:15:53;;;;;;;63.20;35.97;;;;;;;;;;5113846;28;20438;-67
2021/03/25 12:18:22;;;;;;;56.77;34.50;;;;;;;;;;5113723;28;20529;-67
2021/03/25 12:20:49;;;;;;;57.80;37.40;;;;;;;;;;5113441;28;20443;-68
2021/03/25 12:23:17;;;;;;;62.20;39.20;;;;;;;;;;5113678;28;20485;-66
2021/03/25 12:25:44;;;;;;;59.67;36.73;;;;;;;;;;5116203;28;20538;-66
2021/03/25 12:28:12;;;;;;;62.57;36.07;;;;;;;;;;5117730;28;20869;-66
2021/03/25 12:30:39;;;;;;;58.97;36.00;;;;;;;;;;5118561;28;20780;-66
2021/03/25 12:33:07;;;;;;;50.10;34.70;;;;;;;;;;5117778;28;20587;-67
2021/03/25 12:35:33;;;;;;;63.50;39.13;;;;;;;;;;5117793;28;20487;-67
2021/03/25 12:38:00;;;;;;;61.00;40.10;;;;;;;;;;5117865;28;20876;-65
2021/03/25 12:40:29;;;;;;;58.90;36.33;;;;;;;;;;5117562;28;20485;-67
2021/03/25 12:42:56;;;;;;;60.87;37.90;;;;;;;;;;5117058;28;20453;-68
2021/03/25 12:45:27;;;;;;;59.10;38.87;;;;;;;;;;5117069;28;20472;-67
2021/03/25 12:47:54;;;;;;;64.47;36.17;;;;;;;;;;5117496;28;20459;-67
2021/03/25 12:50:21;;;;;;;58.97;38.00;;;;;;;;;;5117333;28;20450;-67
2021/03/25 12:52:48;;;;;;;56.97;37.80;;;;;;;;;;5117238;28;20475;-67
2021/03/25 12:55:15;;;;;;;47.10;32.60;;;;;;;;;;5116872;28;20466;-68
2021/03/25 12:57:42;;;;;;;56.20;36.13;;;;;;;;;;5117130;28;20541;-67
2021/03/25 13:00:11;;;;;;;52.53;32.53;;;;;;;;;;5117286;28;20502;-68
2021/03/25 13:02:38;;;;;;;57.07;37.00;;;;;;;;;;5117383;28;20546;-67
2021/03/25 13:05:06;;;;;;;56.80;36.70;;;;;;;;;;5117070;28;20781;-67
2021/03/25 13:07:33;;;;;;;54.90;34.93;;;;;;;;;;5116777;28;20483;-67
2021/03/25 13:10:00;;;;;;;44.93;31.60;;;;;;;;;;5116767;28;20927;-67
2021/03/25 13:12:27;;;;;;;45.60;32.40;;;;;;;;;;5116549;28;20570;-68
2021/03/25 13:14:54;;;;;;;45.00;30.80;;;;;;;;;;5116543;27;20444;-67
2021/03/25 13:17:22;;;;;;;46.27;33.37;;;;;;;;;;5117121;28;20516;-67
2021/03/25 13:19:50;;;;;;;50.60;31.50;;;;;;;;;;5117129;28;20464;-67
2021/03/25 13:22:17;;;;;;;54.40;32.97;;;;;;;;;;5116674;28;20543;-68
2021/03/25 13:24:44;;;;;;;43.43;28.87;;;;;;;;;;5117050;28;20469;-67
2021/03/25 13:27:11;;;;;;;45.10;29.60;;;;;;;;;;5116564;28;20443;-68
2021/03/25 13:29:38;;;;;;;47.00;28.90;;;;;;;;;;5116821;28;20485;-67
2021/03/25 13:32:05;;;;;;;43.77;28.73;;;;;;;;;;5116595;28;21058;-67
2021/03/25 13:34:32;;;;;;;42.93;28.37;;;;;;;;;;5116796;28;20518;-68
2021/03/25 13:37:00;;;;;;;35.73;27.33;;;;;;;;;;5115516;28;20476;-68
2021/03/25 13:39:28;;;;;;;42.07;28.60;;;;;;;;;;5116120;28;20550;-68
2021/03/25 13:41:55;;;;;;;35.83;26.80;;;;;;;;;;5117119;28;20447;-67
2021/03/25 13:44:22;;;;;;;49.23;29.43;;;;;;;;;;5115899;28;20443;-67
2021/03/25 13:46:49;;;;;;;40.07;27.60;;;;;;;;;;5115960;28;20480;-67
2021/03/25 13:49:15;;;;;;;38.83;25.70;;;;;;;;;;5116348;28;20500;-68
2021/03/25 13:51:42;;;;;;;41.13;28.33;;;;;;;;;;5116169;28;20538;-69
2021/03/25 13:54:10;;;;;;;33.43;25.80;;;;;;;;;;5115889;28;20536;-70
2021/03/25 13:56:37;;;;;;;40.73;27.73;;;;;;;;;;5116806;27;20448;-70
2021/03/25 13:59:04;;;;;;;34.73;24.53;;;;;;;;;;5116023;27;20570;-70
2021/03/25 14:01:31;;;;;;;36.40;23.20;;;;;;;;;;5115807;28;20516;-76
2021/03/25 14:03:58;;;;;;;38.67;23.47;;;;;;;;;;5115971;28;20540;-70
2021/03/25 14:06:25;;;;;;;30.30;21.30;;;;;;;;;;5115935;28;20440;-72
2021/03/25 14:08:51;;;;;;;33.70;21.13;;;;;;;;;;5114264;28;20462;-71
2021/03/25 14:11:20;;;;;;;31.13;20.90;;;;;;;;;;5114506;28;20479;-70
2021/03/25 14:13:47;;;;;;;32.30;20.10;;;;;;;;;;5114459;28;20480;-71
2021/03/25 14:16:14;;;;;;;24.23;16.60;;;;;;;;;;5115468;27;20530;-71
2021/03/25 14:18:40;;;;;;;28.13;17.80;;;;;;;;;;5115762;28;20509;-72
2021/03/25 14:21:07;;;;;;;29.60;18.20;;;;;;;;;;5115209;28;20439;-70
2021/03/25 14:23:34;;;;;;;22.30;17.63;;;;;;;;;;5114953;28;20434;-69
2021/03/25 14:26:01;;;;;;;23.50;18.70;;;;;;;;;;5115109;27;20535;-70
2021/03/25 14:28:29;;;;;;;29.23;19.10;;;;;;;;;;5114764;28;20475;-69
2021/03/25 14:30:56;;;;;;;22.90;17.33;;;;;;;;;;5115075;28;20776;-71
2021/03/25 14:33:24;;;;;;;25.87;17.50;;;;;;;;;;5114975;28;20479;-71